createdAt,value
2019-03-25T00:01:17.507Z,78.90
2019-03-25T00:03:47.496Z,79.10
2019-03-25T00:06:17.765Z,79.20
2019-03-25T00:08:46.447Z,79.10
2019-03-25T00:11:16.337Z,78.90
2019-03-25T00:13:46.412Z,79.10
2019-03-25T00:16:16.273Z,79.10
2019-03-25T00:18:46.217Z,79.20
2019-03-25T00:21:17.801Z,79.20
2019-03-25T00:23:47.678Z,79.10
2019-03-25T00:26:17.554Z,79.30
2019-03-25T00:28:47.630Z,79.30
2019-03-25T00:31:17.735Z,79.40
2019-03-25T00:33:47.843Z,79.70
2019-03-25T00:36:17.870Z,79.60
2019-03-25T00:38:47.943Z,79.60
2019-03-25T00:41:17.725Z,79.90
2019-03-25T00:43:47.576Z,80.00
2019-03-25T00:46:17.664Z,80.10
2019-03-25T00:48:47.656Z,80.20
2019-03-25T00:51:17.450Z,80.50
2019-03-25T00:53:47.329Z,80.80
2019-03-25T00:56:17.421Z,81.00
2019-03-25T00:58:47.403Z,80.90
2019-03-25T01:01:17.298Z,80.80
2019-03-25T01:03:47.223Z,80.60
2019-03-25T01:06:17.489Z,80.70
2019-03-25T01:08:46.113Z,80.70
2019-03-25T01:11:16.210Z,80.40
2019-03-25T01:13:46.247Z,80.30
2019-03-25T01:16:16.173Z,81.00
2019-03-25T01:18:46.071Z,80.20
2019-03-25T01:21:16.168Z,80.40
2019-03-25T01:23:45.921Z,80.60
2019-03-25T01:26:15.839Z,80.70
2019-03-25T01:28:47.654Z,80.90
2019-03-25T01:31:17.535Z,81.20
2019-03-25T01:33:47.734Z,80.90
2019-03-25T01:36:17.629Z,80.80
2019-03-25T01:38:47.857Z,80.80
2019-03-25T01:41:16.436Z,80.80
2019-03-25T01:43:46.320Z,80.60
2019-03-25T01:46:16.905Z,80.70
2019-03-25T01:48:49.380Z,80.60
2019-03-25T01:51:19.416Z,81.00
2019-03-25T01:53:49.762Z,81.20
2019-03-25T01:56:20.250Z,81.30
2019-03-25T01:58:50.726Z,81.30
2019-03-25T02:01:20.687Z,81.40
2019-03-25T02:03:50.763Z,81.60
2019-03-25T02:06:20.672Z,81.70
2019-03-25T02:08:50.925Z,81.80
2019-03-25T02:11:22.201Z,81.60
2019-03-25T02:13:51.330Z,81.60
2019-03-25T02:16:21.281Z,81.70
2019-03-25T02:18:51.382Z,81.50
2019-03-25T02:21:21.641Z,81.60
2019-03-25T02:23:50.822Z,81.20
2019-03-25T02:26:21.608Z,81.10
2019-03-25T02:28:52.568Z,81.00
2019-03-25T02:31:23.187Z,80.90
2019-03-25T02:33:55.251Z,80.70
2019-03-25T02:36:25.973Z,80.80
2019-03-25T02:38:56.686Z,80.80
2019-03-25T02:41:27.362Z,81.10
2019-03-25T02:43:59.519Z,81.40
2019-03-25T02:46:30.178Z,81.40
2019-03-25T02:49:00.436Z,81.60
2019-03-25T02:51:29.795Z,81.70
2019-03-25T02:54:00.323Z,81.70
2019-03-25T02:56:30.340Z,81.80
2019-03-25T02:59:01.737Z,81.80
2019-03-25T03:01:32.101Z,81.70
2019-03-25T03:04:03.226Z,81.40
2019-03-25T03:06:35.862Z,81.40
2019-03-25T03:09:09.672Z,81.50
2019-03-25T03:11:40.994Z,81.40
2019-03-25T03:14:15.378Z,81.20
2019-03-25T03:16:44.676Z,81.10
2019-03-25T03:19:15.868Z,81.00
2019-03-25T03:22:06.154Z,80.90
2019-03-25T03:24:35.846Z,80.90
2019-03-25T03:27:09.675Z,80.70
2019-03-25T03:29:40.461Z,80.80
2019-03-25T03:32:10.925Z,81.30
2019-03-25T03:34:41.943Z,80.30
2019-03-25T03:37:14.110Z,80.20
2019-03-25T03:39:45.336Z,80.20
2019-03-25T03:42:18.832Z,80.30
2019-03-25T03:44:50.793Z,80.40
2019-03-25T03:47:27.282Z,80.90
2019-03-25T03:49:59.347Z,80.80
2019-03-25T03:52:41.000Z,81.00
2019-03-25T03:55:14.558Z,80.90
2019-03-25T03:57:45.681Z,80.70
2019-03-25T04:00:27.278Z,81.20
2019-03-25T04:02:59.383Z,81.20
2019-03-25T04:05:30.177Z,81.30
2019-03-25T04:08:01.060Z,80.80
2019-03-25T04:10:33.171Z,80.70
2019-03-25T04:13:04.854Z,80.80
2019-03-25T04:15:35.587Z,80.80
2019-03-25T04:18:06.295Z,80.90
2019-03-25T04:20:37.744Z,81.10
2019-03-25T04:23:08.050Z,81.40
2019-03-25T04:25:38.544Z,81.40
2019-03-25T04:28:09.245Z,81.60
2019-03-25T04:30:39.647Z,81.90
2019-03-25T04:33:09.947Z,81.80
2019-03-25T04:35:40.236Z,81.70
2019-03-25T04:38:09.343Z,81.70
2019-03-25T04:40:39.862Z,81.60
2019-03-25T04:43:11.174Z,81.70
2019-03-25T04:45:41.934Z,82.00
2019-03-25T04:48:13.318Z,81.90
2019-03-25T04:50:45.388Z,81.80
2019-03-25T04:53:15.913Z,81.50
2019-03-25T04:55:46.171Z,81.00
2019-03-25T04:58:17.646Z,81.20
2019-03-25T05:00:48.370Z,81.50
2019-03-25T05:03:20.184Z,81.00
2019-03-25T05:05:53.209Z,81.20
2019-03-25T05:08:23.407Z,80.50
2019-03-25T05:10:52.534Z,80.00
2019-03-25T05:13:24.454Z,79.90
2019-03-25T05:16:08.900Z,79.80
2019-03-25T05:18:44.185Z,79.80
2019-03-25T05:21:15.949Z,79.70
2019-03-25T05:23:46.579Z,79.60
2019-03-25T05:26:17.829Z,79.50
2019-03-25T05:28:49.387Z,79.30
2019-03-25T05:31:22.769Z,79.20
2019-03-25T05:33:56.970Z,79.30
2019-03-25T05:36:31.820Z,79.20
2019-03-25T05:39:14.910Z,79.30
2019-03-25T05:41:48.025Z,79.10
2019-03-25T05:44:22.284Z,79.10
2019-03-25T05:46:56.929Z,79.00
2019-03-25T05:49:30.002Z,78.90
2019-03-25T05:52:00.577Z,78.90
2019-03-25T05:54:32.766Z,78.80
2019-03-25T05:57:07.394Z,78.50
2019-03-25T05:59:41.048Z,78.60
2019-03-25T06:02:11.110Z,79.20
2019-03-25T06:04:44.234Z,79.90
2019-03-25T06:07:15.241Z,80.60
2019-03-25T06:09:45.420Z,82.50
2019-03-25T06:12:14.670Z,83.90
2019-03-25T06:14:45.254Z,84.90
2019-03-25T06:17:15.618Z,85.90
2019-03-25T06:19:49.016Z,86.50
2019-03-25T06:22:22.489Z,87.20
2019-03-25T06:24:56.051Z,87.20
2019-03-25T06:27:26.535Z,88.10
2019-03-25T06:29:58.970Z,88.70
2019-03-25T06:32:33.600Z,90.10
2019-03-25T06:35:04.894Z,90.80
2019-03-25T06:37:35.727Z,91.50
2019-03-25T06:40:06.836Z,92.10
2019-03-25T06:42:37.438Z,92.70
2019-03-25T06:45:09.243Z,92.60
2019-03-25T06:47:39.723Z,92.90
2019-03-25T06:50:11.088Z,92.90
2019-03-25T06:52:41.761Z,93.10
2019-03-25T06:55:12.545Z,93.40
2019-03-25T06:57:43.523Z,93.80
2019-03-25T07:00:14.392Z,93.80
2019-03-25T07:02:44.907Z,94.00
2019-03-25T07:05:17.838Z,94.30
2019-03-25T07:07:49.085Z,94.20
2019-03-25T07:11:07.808Z,94.40
2019-03-25T07:13:37.958Z,94.50
2019-03-25T07:16:07.007Z,94.70
2019-03-25T07:18:37.064Z,94.50
2019-03-25T07:21:07.288Z,95.00
2019-03-25T07:23:36.207Z,95.20
2019-03-25T07:26:06.275Z,95.00
2019-03-25T07:28:38.592Z,95.40
2019-03-25T07:31:08.059Z,95.70
2019-03-25T07:33:36.761Z,95.80
2019-03-25T07:36:08.089Z,95.70
2019-03-25T07:38:38.053Z,95.90
2019-03-25T07:41:08.650Z,95.90
2019-03-25T07:43:39.259Z,96.10
2019-03-25T07:46:09.688Z,96.10
2019-03-25T07:48:39.665Z,96.30
2019-03-25T07:51:09.839Z,96.10
2019-03-25T07:53:38.491Z,96.20
2019-03-25T07:56:08.403Z,96.00
2019-03-25T07:58:38.348Z,96.10
2019-03-25T08:01:08.114Z,95.90
2019-03-25T08:03:37.959Z,96.00
2019-03-25T08:06:07.839Z,96.00
2019-03-25T08:08:37.648Z,96.00
2019-03-25T08:11:07.458Z,96.10
2019-03-25T08:13:37.293Z,96.10
2019-03-25T08:16:07.205Z,95.90
2019-03-25T08:18:37.073Z,95.70
2019-03-25T08:21:07.125Z,95.40
2019-03-25T08:23:36.220Z,95.00
2019-03-25T08:26:06.315Z,95.00
2019-03-25T08:28:36.693Z,94.50
2019-03-25T08:31:05.389Z,94.80
2019-03-25T08:33:37.647Z,94.60
2019-03-25T08:36:07.786Z,94.50
2019-03-25T08:38:36.558Z,94.30
2019-03-25T08:41:09.725Z,94.30
2019-03-25T08:43:40.394Z,93.80
2019-03-25T08:46:11.282Z,93.80
2019-03-25T08:48:44.318Z,93.70
2019-03-25T08:51:14.969Z,93.70
2019-03-25T08:53:44.617Z,93.70
2019-03-25T08:56:15.201Z,93.30
2019-03-25T08:58:45.963Z,93.10
2019-03-25T09:01:15.882Z,93.00
2019-03-25T09:03:45.500Z,93.20
2019-03-25T09:06:15.442Z,93.10
2019-03-25T09:08:45.332Z,93.30
2019-03-25T09:11:16.717Z,93.00
2019-03-25T09:13:46.657Z,92.50
2019-03-25T09:16:16.434Z,92.60
2019-03-25T09:18:50.270Z,92.30
2019-03-25T09:21:21.850Z,92.10
2019-03-25T09:23:52.236Z,91.80
2019-03-25T09:26:22.369Z,91.60
2019-03-25T09:28:51.286Z,91.80
2019-03-25T09:31:22.303Z,91.80
2019-03-25T09:33:53.318Z,92.20
2019-03-25T09:36:24.221Z,91.30
2019-03-25T09:38:54.518Z,92.00
2019-03-25T09:41:23.324Z,91.90
2019-03-25T09:43:54.627Z,91.20
2019-03-25T09:46:27.810Z,91.70
2019-03-25T09:48:57.835Z,91.20
2019-03-25T09:51:30.241Z,91.10
2019-03-25T09:54:04.261Z,90.40
2019-03-25T09:56:36.599Z,90.40
2019-03-25T09:59:12.557Z,90.20
2019-03-25T10:01:42.349Z,90.10
2019-03-25T10:04:12.266Z,89.20
2019-03-25T10:06:45.086Z,87.90
2019-03-25T10:09:17.628Z,83.80
2019-03-25T10:11:48.799Z,83.70
2019-03-25T10:14:20.899Z,83.30
2019-03-25T10:16:51.407Z,83.10
2019-03-25T10:19:22.096Z,82.00
2019-03-25T10:21:52.377Z,82.30
2019-03-25T10:24:27.649Z,81.30
2019-03-25T10:26:53.664Z,81.90
2019-03-25T10:29:26.927Z,81.10
2019-03-25T10:31:58.711Z,82.20
2019-03-25T10:34:29.310Z,83.70
2019-03-25T10:37:04.355Z,84.10
2019-03-25T10:39:35.217Z,83.90
2019-03-25T10:42:06.851Z,85.40
2019-03-25T10:44:39.317Z,83.10
2019-03-25T10:47:10.718Z,84.90
2019-03-25T10:49:52.088Z,89.80
2019-03-25T10:52:23.765Z,90.80
2019-03-25T10:57:24.793Z,91.10
2019-03-25T10:59:53.777Z,90.40
2019-03-25T11:02:24.173Z,90.00
2019-03-25T11:04:58.185Z,90.10
2019-03-25T11:07:29.524Z,87.20
2019-03-25T11:10:03.246Z,85.60
2019-03-25T11:12:34.260Z,84.20
2019-03-25T11:15:10.541Z,85.10
2019-03-25T11:18:09.531Z,83.00
2019-03-25T11:20:42.325Z,81.70
2019-03-25T11:23:12.862Z,81.60
2019-03-25T11:25:43.499Z,81.50
2019-03-25T11:28:18.029Z,81.00
2019-03-25T11:31:00.497Z,80.10
2019-03-25T11:33:38.843Z,79.50
2019-03-25T11:36:10.555Z,80.00
2019-03-25T11:38:41.241Z,80.20
2019-03-25T11:41:18.111Z,80.30
2019-03-25T11:43:51.090Z,79.00
2019-03-25T11:46:21.993Z,78.20
2019-03-25T11:48:53.249Z,80.60
2019-03-25T11:51:23.788Z,79.40
2019-03-25T11:53:55.844Z,78.10
2019-03-25T11:56:28.005Z,79.70
2019-03-25T11:59:00.222Z,77.60
2019-03-25T12:01:36.682Z,79.10
2019-03-25T12:04:10.655Z,77.60
2019-03-25T12:06:41.246Z,77.00
2019-03-25T12:09:11.400Z,76.80
2019-03-25T12:11:41.963Z,78.90
2019-03-25T12:14:12.206Z,79.60
2019-03-25T12:16:41.107Z,77.00
2019-03-25T12:19:11.344Z,76.00
2019-03-25T12:21:41.688Z,75.10
2019-03-25T12:24:12.941Z,76.00
2019-03-25T12:26:45.338Z,74.50
2019-03-25T12:29:30.096Z,73.20
2019-03-25T12:31:55.690Z,72.20
2019-03-25T12:34:26.464Z,72.00
2019-03-25T12:37:40.567Z,71.60
2019-03-25T12:40:12.798Z,69.90
2019-03-25T12:42:48.901Z,71.30
2019-03-25T12:45:24.081Z,72.30
2019-03-25T12:48:27.453Z,72.10
2019-03-25T12:50:59.572Z,73.40
2019-03-25T12:53:31.115Z,71.30
2019-03-25T12:56:08.492Z,68.40
2019-03-25T12:58:41.175Z,67.90
2019-03-25T13:01:11.899Z,67.00
2019-03-25T13:03:43.631Z,66.60
2019-03-25T13:06:15.346Z,66.80
2019-03-25T13:08:46.423Z,67.00
2019-03-25T13:11:16.867Z,63.30
2019-03-25T13:13:47.498Z,62.60
2019-03-25T13:16:22.613Z,62.70
2019-03-25T13:18:52.974Z,61.90
2019-03-25T13:21:23.365Z,60.60
2019-03-25T13:23:53.997Z,59.40
2019-03-25T13:26:24.117Z,60.10
2019-03-25T13:29:01.822Z,60.40
2019-03-25T13:31:29.632Z,62.80
2019-03-25T13:34:00.926Z,67.20
2019-03-25T13:36:31.095Z,69.30
2019-03-25T13:39:01.010Z,71.40
2019-03-25T13:41:31.340Z,72.20
2019-03-25T13:44:02.918Z,72.80
2019-03-25T13:46:37.455Z,71.40
2019-03-25T13:49:07.700Z,69.00
2019-03-25T13:51:36.497Z,68.80
2019-03-25T13:54:07.097Z,67.10
2019-03-25T13:56:40.071Z,66.60
2019-03-25T13:59:11.559Z,67.20
2019-03-25T14:01:41.955Z,68.50
2019-03-25T14:04:13.530Z,68.30
2019-03-25T14:06:43.990Z,71.90
2019-03-25T14:09:13.970Z,75.80
2019-03-25T14:11:43.780Z,78.80
2019-03-25T14:14:13.761Z,82.30
2019-03-25T14:16:43.680Z,84.50
2019-03-25T14:19:13.591Z,83.90
2019-03-25T14:21:43.508Z,81.50
2019-03-25T14:24:14.989Z,81.50
2019-03-25T14:26:44.989Z,82.10
2019-03-25T14:29:15.255Z,82.00
2019-03-25T14:31:45.397Z,82.90
2019-03-25T14:34:16.517Z,81.10
2019-03-25T14:36:46.394Z,80.20
2019-03-25T14:39:16.338Z,79.40
2019-03-25T14:41:47.042Z,79.70
2019-03-25T14:44:16.955Z,80.50
2019-03-25T14:46:46.911Z,80.00
2019-03-25T14:49:16.822Z,77.40
2019-03-25T14:51:47.066Z,74.90
2019-03-25T14:54:15.960Z,72.80
2019-03-25T14:56:47.251Z,69.10
2019-03-25T14:59:17.261Z,68.50
2019-03-25T15:01:48.502Z,67.00
2019-03-25T15:04:20.026Z,66.90
2019-03-25T15:06:50.160Z,67.00
2019-03-25T15:09:19.993Z,66.00
2019-03-25T15:11:50.131Z,66.60
2019-03-25T15:14:22.722Z,69.30
2019-03-25T15:16:55.845Z,69.90
2019-03-25T15:19:30.363Z,70.20
2019-03-25T15:22:00.879Z,68.70
2019-03-25T15:24:31.981Z,67.70
2019-03-25T15:27:01.994Z,65.90
2019-03-25T15:29:32.296Z,64.70
2019-03-25T15:32:04.137Z,62.00
2019-03-25T15:34:37.986Z,61.90
2019-03-25T15:37:35.319Z,58.70
2019-03-25T15:40:09.232Z,57.60
2019-03-25T15:42:45.351Z,59.00
2019-03-25T15:45:19.907Z,58.50
2019-03-25T15:48:03.922Z,58.90
2019-03-25T15:50:35.379Z,58.30
2019-03-25T15:53:05.608Z,57.20
2019-03-25T15:55:34.610Z,56.80
2019-03-25T15:58:07.839Z,57.60
2019-03-25T16:00:46.999Z,57.50
2019-03-25T16:03:10.229Z,57.60
2019-03-25T16:05:40.551Z,57.00
2019-03-25T16:08:32.333Z,56.00
2019-03-25T16:11:05.956Z,56.20
2019-03-25T16:13:43.780Z,56.30
2019-03-25T16:16:13.640Z,56.30
2019-03-25T16:19:01.168Z,57.50
2019-03-25T16:21:33.544Z,59.00
2019-03-25T16:24:04.363Z,62.00
2019-03-25T16:26:37.194Z,63.40
2019-03-25T16:29:09.610Z,64.00
2019-03-25T16:31:40.561Z,65.00
2019-03-25T16:34:11.147Z,65.60
2019-03-25T16:36:49.449Z,66.30
2019-03-25T16:39:21.716Z,65.50
2019-03-25T16:41:54.067Z,65.80
2019-03-25T16:44:26.115Z,66.60
2019-03-25T16:46:58.384Z,67.10
2019-03-25T16:49:28.490Z,68.20
2019-03-25T16:52:02.638Z,69.30
2019-03-25T16:54:33.408Z,70.30
2019-03-25T16:57:03.852Z,70.60
2019-03-25T16:59:33.999Z,72.10
2019-03-25T17:02:02.966Z,72.00
2019-03-25T17:04:32.983Z,72.20
2019-03-25T17:07:04.652Z,72.90
2019-03-25T17:09:34.835Z,73.20
2019-03-25T17:12:03.555Z,73.20
2019-03-25T17:14:33.695Z,73.20
2019-03-25T17:17:02.556Z,74.00
2019-03-25T17:19:33.465Z,74.30
2019-03-25T17:22:07.345Z,75.10
2019-03-25T17:24:37.826Z,75.50
2019-03-25T17:27:08.114Z,75.80
2019-03-25T17:29:36.682Z,76.20
2019-03-25T17:32:06.546Z,76.30
2019-03-25T17:34:37.632Z,77.10
2019-03-25T17:37:07.592Z,77.10
2019-03-25T17:39:37.474Z,77.70
2019-03-25T17:42:07.427Z,77.80
2019-03-25T17:44:37.006Z,78.60
2019-03-25T17:47:06.718Z,77.80
2019-03-25T17:49:36.568Z,78.00
2019-03-25T17:52:07.320Z,77.90
2019-03-25T17:54:37.076Z,78.10
2019-03-25T17:57:06.709Z,77.50
2019-03-25T17:59:36.486Z,77.10
2019-03-25T18:02:06.203Z,77.00
2019-03-25T18:04:36.021Z,76.60
2019-03-25T18:07:05.800Z,76.30
2019-03-25T18:09:35.417Z,75.90
2019-03-25T18:12:05.256Z,75.20
2019-03-25T18:14:35.620Z,75.40
2019-03-25T18:17:05.722Z,74.80
2019-03-25T18:19:35.545Z,73.90
2019-03-25T18:22:06.378Z,73.30
2019-03-25T18:24:36.516Z,72.80
2019-03-25T18:27:06.898Z,72.70
2019-03-25T18:29:37.443Z,72.10
2019-03-25T18:32:07.469Z,72.10
2019-03-25T18:34:37.530Z,71.10
2019-03-25T18:37:07.783Z,71.30
2019-03-25T18:39:36.462Z,70.90
2019-03-25T18:42:06.794Z,70.40
2019-03-25T18:44:37.498Z,70.20
2019-03-25T18:47:12.104Z,69.80
2019-03-25T18:49:46.234Z,69.70
2019-03-25T18:52:16.995Z,69.80
2019-03-25T18:54:48.268Z,69.50
2019-03-25T18:57:19.524Z,69.30
2019-03-25T18:59:49.464Z,69.30
2019-03-25T19:02:19.169Z,69.40
2019-03-25T19:04:48.954Z,69.10
2019-03-25T19:07:18.796Z,69.30
2019-03-25T19:09:49.281Z,69.30
2019-03-25T19:12:19.800Z,68.70
2019-03-25T19:14:49.619Z,68.80
2019-03-25T19:17:19.910Z,69.20
2019-03-25T19:19:50.042Z,69.90
2019-03-25T19:22:19.949Z,69.80
2019-03-25T19:24:49.873Z,69.80
2019-03-25T19:27:19.924Z,70.20
2019-03-25T19:29:50.259Z,70.10
2019-03-25T19:32:25.116Z,70.10
2019-03-25T19:34:58.844Z,70.50
2019-03-25T19:37:32.132Z,70.80
2019-03-25T19:40:03.540Z,70.80
2019-03-25T19:46:11.183Z,70.70
2019-03-25T19:48:41.234Z,70.90
2019-03-25T19:51:11.191Z,71.10
2019-03-25T19:53:41.120Z,71.40
2019-03-25T19:56:11.039Z,71.70
2019-03-25T19:58:41.126Z,71.80
2019-03-25T20:01:09.954Z,71.80
2019-03-25T20:03:42.945Z,72.10
2019-03-25T20:06:25.577Z,72.50
2019-03-25T20:08:45.822Z,72.50
2019-03-25T20:11:17.936Z,72.70
2019-03-25T20:13:48.218Z,73.30
2019-03-25T20:16:19.262Z,73.40
2019-03-25T20:18:52.627Z,73.60
2019-03-25T20:21:22.765Z,73.80
2019-03-25T20:23:54.254Z,74.10
2019-03-25T20:26:24.687Z,74.30
2019-03-25T20:28:58.042Z,74.50
2019-03-25T20:31:28.325Z,74.70
2019-03-25T20:34:10.129Z,75.00
2019-03-25T20:36:29.588Z,75.30
2019-03-25T20:39:00.248Z,75.60
2019-03-25T20:41:30.376Z,75.80
2019-03-25T20:44:00.312Z,76.00
2019-03-25T20:46:31.110Z,76.40
2019-03-25T20:49:01.947Z,76.80
2019-03-25T20:51:32.225Z,77.10
2019-03-25T20:54:01.230Z,77.40
2019-03-25T20:56:31.076Z,78.20
2019-03-25T20:59:01.275Z,77.90
2019-03-25T21:01:31.439Z,78.30
2019-03-25T21:04:02.663Z,78.40
2019-03-25T21:06:32.774Z,78.70
2019-03-25T21:09:07.242Z,79.20
2019-03-25T21:11:37.585Z,79.50
2019-03-25T21:14:07.883Z,79.80
2019-03-25T21:16:37.614Z,80.00
2019-03-25T21:19:07.810Z,80.40
2019-03-25T21:21:36.449Z,80.90
2019-03-25T21:24:06.258Z,80.90
2019-03-25T21:26:36.921Z,81.50
2019-03-25T21:29:06.640Z,82.00
2019-03-25T21:31:39.010Z,82.20
2019-03-25T21:34:08.285Z,82.10
2019-03-25T21:36:38.250Z,82.20
2019-03-25T21:39:08.637Z,82.70
2019-03-25T21:41:39.002Z,82.80
2019-03-25T21:44:09.227Z,83.10
2019-03-25T21:46:39.791Z,83.40
2019-03-25T21:49:09.729Z,83.60
2019-03-25T21:51:40.158Z,83.90
2019-03-25T21:54:10.157Z,84.10
2019-03-25T21:56:40.631Z,84.30
2019-03-25T21:59:11.054Z,84.50
2019-03-25T22:01:41.035Z,84.80
2019-03-25T22:04:11.012Z,85.10
2019-03-25T22:06:40.939Z,85.10
2019-03-25T22:09:10.718Z,85.00
2019-03-25T22:11:40.628Z,85.20
2019-03-25T22:14:10.396Z,85.30
2019-03-25T22:16:40.307Z,85.70
2019-03-25T22:19:10.084Z,86.00
2019-03-25T22:21:40.006Z,86.20
2019-03-25T22:24:09.855Z,86.30
2019-03-25T22:26:39.740Z,86.60
2019-03-25T22:29:09.705Z,86.70
2019-03-25T22:31:39.307Z,87.00
2019-03-25T22:34:09.017Z,87.20
2019-03-25T22:36:39.441Z,87.20
2019-03-25T22:39:10.446Z,87.40
2019-03-25T22:41:40.379Z,87.70
2019-03-25T22:44:11.324Z,88.00
2019-03-25T22:46:41.318Z,88.20
2019-03-25T22:49:11.308Z,88.40
2019-03-25T22:51:41.026Z,88.80
2019-03-25T22:54:10.990Z,89.30
2019-03-25T22:56:41.241Z,89.70
2019-03-25T22:59:09.896Z,90.00
2019-03-25T23:01:40.739Z,89.90
2019-03-25T23:04:10.621Z,90.30
2019-03-25T23:06:43.241Z,90.40
2019-03-25T23:09:13.307Z,90.40
2019-03-25T23:11:43.261Z,90.50
2019-03-25T23:14:15.575Z,90.40
2019-03-25T23:16:48.485Z,90.70
2019-03-25T23:19:18.295Z,90.70
2019-03-25T23:21:48.115Z,90.90
2019-03-25T23:24:17.949Z,90.90
2019-03-25T23:26:48.103Z,90.90
2019-03-25T23:29:18.014Z,91.00
2019-03-25T23:31:47.742Z,91.00
2019-03-25T23:34:17.612Z,91.00
2019-03-25T23:36:47.376Z,91.10
2019-03-25T23:39:17.135Z,91.00
2019-03-25T23:41:46.970Z,90.90
2019-03-25T23:44:17.295Z,90.90
2019-03-25T23:46:47.445Z,90.90
2019-03-25T23:49:17.596Z,91.00
2019-03-25T23:51:47.601Z,91.20
2019-03-25T23:54:17.588Z,91.10
2019-03-25T23:56:47.413Z,91.10
2019-03-25T23:59:17.404Z,91.40
